createdAt,value
2023-03-18T07:21:27.780Z,16.77
2023-03-18T07:23:55.556Z,16.30
2023-03-18T07:26:25.258Z,15.73
2023-03-18T07:28:52.232Z,15.60
2023-03-18T07:31:19.160Z,14.23
2023-03-18T16:44:18.318Z,28.55
2023-03-18T16:46:53.819Z,29.23
2023-03-18T16:49:27.112Z,28.65
2023-03-18T16:51:54.616Z,28.85
2023-03-18T16:54:31.571Z,29.85
2023-03-18T16:57:02.172Z,28.00
2023-03-18T16:59:35.305Z,28.00
2023-03-18T17:02:04.042Z,26.48
2023-03-18T17:04:35.861Z,27.02
2023-03-18T17:07:04.613Z,26.20
2023-03-18T17:09:32.099Z,26.75
2023-03-18T17:12:05.811Z,29.02
2023-03-18T17:14:41.444Z,25.77
2023-03-18T17:17:30.582Z,27.95
2023-03-18T17:19:57.647Z,27.98
2023-03-18T17:22:30.564Z,30.23
2023-03-18T17:24:57.553Z,28.53
2023-03-18T17:27:31.867Z,27.08
2023-03-18T17:29:58.772Z,26.67
2023-03-18T17:32:26.089Z,27.70
2023-03-18T17:34:53.964Z,27.92
2023-03-18T17:37:21.511Z,29.40
2023-03-18T17:39:48.441Z,30.05
2023-03-18T17:42:18.082Z,27.52
2023-03-18T17:44:45.647Z,28.55
2023-03-18T17:47:14.579Z,37.40
2023-03-18T17:49:41.555Z,44.67
2023-03-18T17:52:19.681Z,33.92
2023-03-18T17:54:47.025Z,31.95
2023-03-18T17:57:18.300Z,32.95
2023-03-18T17:59:46.039Z,31.40
2023-03-18T18:02:17.800Z,30.45
2023-03-18T18:04:45.792Z,29.92
2023-03-18T18:07:21.828Z,31.25
2023-03-18T18:09:49.610Z,30.38
2023-03-18T18:12:25.681Z,30.63
2023-03-18T18:14:52.730Z,32.25
2023-03-18T18:17:20.577Z,30.80
2023-03-18T18:19:47.600Z,30.75
2023-03-18T18:22:21.180Z,29.73
2023-03-18T18:24:48.733Z,29.30
2023-03-18T18:27:16.017Z,30.52
2023-03-18T18:29:46.015Z,30.83
2023-03-18T18:32:13.276Z,30.48
2023-03-18T18:34:40.294Z,31.02
2023-03-18T18:37:07.881Z,30.42
2023-03-18T18:39:34.839Z,30.00
2023-03-18T18:42:01.797Z,30.65
2023-03-18T18:44:28.742Z,31.13
2023-03-18T18:46:56.149Z,30.88
2023-03-18T18:49:24.626Z,31.70
2023-03-18T18:51:54.770Z,29.98
2023-03-18T18:54:23.154Z,30.48
2023-03-18T18:56:50.357Z,29.98
2023-03-18T18:59:26.967Z,33.40
2023-03-18T19:01:55.389Z,31.55
2023-03-18T19:04:22.933Z,31.52
2023-03-18T19:06:51.686Z,30.60
2023-03-18T19:09:24.543Z,31.52
2023-03-18T19:11:55.294Z,31.00
2023-03-18T19:14:29.488Z,32.15
2023-03-18T19:17:01.936Z,29.48
2023-03-18T19:19:32.503Z,30.48
2023-03-18T19:22:00.415Z,31.30
2023-03-18T19:24:32.652Z,32.08
2023-03-18T19:27:02.895Z,32.33
2023-03-18T19:29:30.704Z,31.50
2023-03-18T19:31:57.758Z,31.42
2023-03-18T19:34:26.834Z,30.33
2023-03-18T19:36:56.673Z,31.50
2023-03-18T19:39:25.235Z,30.58
2023-03-18T19:41:52.379Z,29.95
2023-03-18T19:44:25.170Z,30.77
2023-03-18T19:46:54.995Z,29.25
2023-03-18T19:49:35.763Z,29.58
2023-03-18T19:52:16.514Z,28.95
2023-03-18T19:54:44.569Z,28.42
2023-03-18T19:57:28.769Z,29.45
2023-03-18T19:59:57.999Z,27.48
2023-03-18T20:02:34.889Z,28.02
2023-03-18T20:05:04.755Z,29.02
2023-03-18T20:07:32.868Z,28.58
2023-03-18T20:10:00.290Z,30.20
2023-03-18T20:12:42.118Z,30.98
2023-03-18T20:15:25.187Z,29.88
2023-03-18T20:17:53.075Z,29.58
2023-03-18T20:20:23.334Z,28.45
2023-03-18T20:23:12.548Z,30.52
2023-03-18T20:25:43.659Z,26.92
2023-03-18T20:28:23.092Z,27.08
2023-03-18T20:30:53.399Z,27.13
2023-03-18T20:33:22.171Z,27.65
2023-03-18T20:35:52.395Z,28.38
2023-03-18T20:38:35.286Z,28.25
2023-03-18T20:41:03.198Z,29.13
2023-03-18T20:43:30.808Z,29.95
2023-03-18T20:45:59.965Z,27.42
2023-03-18T20:48:27.885Z,27.05
2023-03-18T20:50:55.375Z,27.80
2023-03-18T20:53:28.610Z,29.27
2023-03-18T20:55:56.113Z,29.15
2023-03-18T20:58:25.874Z,28.85
2023-03-18T21:00:53.877Z,26.48
2023-03-18T21:03:27.146Z,27.77
2023-03-18T21:05:57.782Z,26.10
2023-03-18T21:08:26.630Z,24.80
2023-03-18T21:10:54.801Z,27.45
2023-03-18T21:13:30.791Z,27.33
2023-03-18T21:15:58.900Z,26.58
2023-03-18T21:18:26.635Z,26.42
2023-03-18T21:20:56.532Z,27.52
2023-03-18T21:23:24.869Z,27.30
2023-03-18T21:25:53.207Z,27.20
2023-03-18T21:28:21.679Z,27.13
2023-03-18T21:30:50.855Z,26.02
2023-03-18T21:33:21.206Z,26.70
2023-03-18T21:35:50.283Z,27.02
2023-03-18T21:38:18.677Z,26.42
2023-03-18T21:40:46.085Z,27.15
2023-03-18T21:43:40.133Z,26.83
2023-03-18T21:46:12.619Z,25.65
2023-03-18T21:48:39.921Z,26.35
2023-03-18T21:51:10.165Z,27.02
2023-03-18T21:53:37.456Z,27.13
2023-03-18T21:56:04.758Z,26.55
2023-03-18T21:58:31.701Z,27.15
2023-03-18T22:00:59.527Z,25.95
2023-03-18T22:03:29.014Z,27.38
2023-03-18T22:05:57.463Z,26.50
2023-03-18T22:08:25.487Z,27.88
2023-03-18T22:10:53.064Z,28.23
2023-03-18T22:13:25.256Z,27.80
2023-03-18T22:15:53.608Z,27.63
2023-03-18T22:18:21.577Z,27.20
2023-03-18T22:20:51.196Z,27.67
2023-03-18T22:23:23.387Z,28.30
2023-03-18T22:25:54.783Z,27.65
2023-03-18T22:28:22.878Z,26.80
2023-03-18T22:30:52.134Z,24.95
2023-03-18T22:33:26.545Z,28.50
2023-03-18T22:35:54.274Z,28.52
2023-03-18T22:38:25.837Z,26.88
2023-03-18T22:40:55.798Z,27.63
2023-03-18T22:43:34.750Z,27.83
2023-03-18T22:46:04.641Z,28.95
2023-03-18T22:48:32.251Z,29.30
2023-03-18T22:51:00.516Z,30.08
2023-03-18T22:53:31.862Z,29.35
2023-03-18T22:56:05.939Z,28.55
2023-03-18T22:58:32.870Z,29.58
2023-03-18T23:00:59.769Z,28.65
2023-03-18T23:03:33.685Z,27.08
2023-03-18T23:06:02.867Z,28.70
2023-03-18T23:08:30.586Z,27.80
2023-03-18T23:11:01.028Z,27.50
2023-03-18T23:13:38.013Z,28.77
2023-03-18T23:16:06.955Z,28.20
2023-03-18T23:18:34.977Z,29.70
2023-03-18T23:21:01.944Z,30.77
2023-03-18T23:23:30.393Z,29.02
2023-03-18T23:25:57.870Z,30.98
2023-03-18T23:28:24.780Z,28.67
2023-03-18T23:30:53.173Z,29.48
2023-03-18T23:33:20.572Z,28.77
2023-03-18T23:35:48.205Z,30.23
2023-03-18T23:38:15.519Z,29.60
2023-03-18T23:40:42.484Z,30.85
2023-03-18T23:43:09.707Z,28.92
2023-03-18T23:45:38.471Z,31.45
2023-03-18T23:48:06.201Z,29.52
2023-03-18T23:50:33.353Z,28.83
2023-03-18T23:53:00.496Z,28.90
2023-03-18T23:55:45.471Z,31.05
2023-03-18T23:58:12.432Z,29.23
